Father Pat — WDG2791 — position and weather

sailwx.info

Track history (hours):
 
Tides and Currents Weather Stations Pressure Air Temp Water Temp Dewpoint Dewpoint Depression Visibility Wind Speed Wind Dir Waves Ship Positions

Father Pat

Owner: Marquette Transportation Company Gulf-Inland, LLC, Jefferson, LA. More information available from US FCC via Universal Licensing System and Coast Guard Vessel Documentation Center.

Last reported at 2015-Mar-29 19:32 UTC. Time now 2015-Mar-31 20:52 UTC.
Position N 29°35' W 090°58'.

Type: Towing. MMSI: 367519320.

Date/timePositionNaut miles runAvg speedWind from/ knotsBaromVisibWave heightAir tempDewpointWater temp
2015-Mar-29 19:32N 29°35' W 090°58'4 4.0
2015-Mar-29 18:33N 29°33' W 090°54'4 3.9
2015-Mar-29 17:33N 29°32' W 090°50'3 3.5
2015-Mar-29 16:33N 29°32' W 090°46'3 3.1
2015-Mar-29 15:33N 29°34' W 090°43'3 3.0
2015-Mar-29 14:33N 29°37' W 090°42'4 3.7
2015-Mar-29 13:34N 29°35' W 090°38'4 3.6
2015-Mar-29 12:33N 29°34' W 090°34'29 2.6
2015-Mar-29 01:20N 29°47' W 090°04'3 3.1
2015-Mar-29 00:27N 29°50' W 090°03'4 3.6
2015-Mar-28 23:16N 29°53' W 090°00'3 1.5
2015-Mar-28 21:32N 29°55' W 089°58'1 0.1
2015-Mar-28 02:20N 29°55' W 089°57'0 0.0
2015-Mar-28 01:26N 29°55' W 089°57'0 0.0
2015-Mar-28 00:30N 29°55' W 089°57'0 0.0
2015-Mar-27 23:28N 29°55' W 089°57'0 0.0
2015-Mar-27 22:28N 29°55' W 089°57'0 0.0
2015-Mar-27 21:32N 29°55' W 089°57'5 5.5
2015-Mar-27 20:33N 29°57' W 090°03'5 4.7
2015-Mar-27 19:28N 29°57' W 090°08'22 0.6
2015-Mar-26 04:28N 30°03' W 090°33'20 2.5
2015-Mar-25 20:16N 29°57' W 090°10'2 2.4
2015-Mar-25 19:33N 29°56' W 090°08'3 3.2
2015-Mar-25 18:30N 29°55' W 090°05'3 3.1
2015-Mar-25 17:30N 29°57' W 090°03'1 1.0
2015-Mar-25 16:33N 29°58' W 090°02'0 0.3
2015-Mar-25 15:31N 29°58' W 090°02'1 1.5
2015-Mar-25 14:33N 29°60' W 090°01'0 0.1
2015-Mar-25 13:33N 29°60' W 090°01'0 0.0
2015-Mar-25 12:16N 29°60' W 090°01'0 0.0
2015-Mar-24 18:11N 29°60' W 090°01'0 0.0
2015-Mar-24 17:05N 29°60' W 090°01'1 0.1
2015-Mar-24 10:18N 29°60' W 090°00'1 1.0
2015-Mar-24 09:33N 29°60' W 090°01'2 1.9
2015-Mar-24 08:32N 29°58' W 090°02'2 2.1
2015-Mar-24 07:32N 29°56' W 090°03'6 5.7
2015-Mar-24 06:33N 29°57' W 090°10'1 0.1
2015-Mar-23 23:06N 29°56' W 090°11'2 3.3
2015-Mar-23 22:28N 29°56' W 090°08'4 4.1
2015-Mar-23 21:28N 29°56' W 090°04'6 2.3
2015-Mar-23 19:05N 29°55' W 089°57'5 0.3
2015-Mar-23 01:06N 29°60' W 090°01'0 0.2
2015-Mar-22 22:06N 29°59' W 090°01'2 2.3
2015-Mar-22 21:22N 29°60' W 089°59'2 1.7
2015-Mar-22 20:27N 30°00' W 089°58'1 0.8
2015-Mar-22 19:26N 30°00' W 089°57'5 5.2
2015-Mar-22 18:31N 29°58' W 090°02'0 0.2
2015-Mar-22 17:06N 29°58' W 090°02'1 1.2
2015-Mar-22 16:28N 29°58' W 090°03'2 2.3
2015-Mar-22 15:26N 29°56' W 090°00'3 0.1
2015-Mar-21 15:17N 29°53' W 089°60'0 0.2
2015-Mar-21 14:29N 29°53' W 089°60'0 0.0
2015-Mar-21 13:33N 29°53' W 089°60'0 0.0
2015-Mar-21 12:31N 29°53' W 089°60'0 0.0
2015-Mar-21 11:19N 29°53' W 089°60'0 0.0
2015-Mar-21 10:31N 29°53' W 089°60'0 0.0
2015-Mar-21 09:32N 29°53' W 089°60'0 0.0
2015-Mar-21 08:25N 29°53' W 089°60'0 0.0
2015-Mar-21 07:22N 29°53' W 089°60'4 1.9
2015-Mar-21 05:15N 29°50' W 090°03'0 0.0
2015-Mar-21 04:32N 29°50' W 090°03'0 0.0
2015-Mar-21 03:30N 29°50' W 090°03'  
Track history (hours):
 
Tides and Currents Weather Stations Pressure Air Temp Water Temp Dewpoint Dewpoint Depression Visibility Wind Speed Wind Dir Waves Ship Positions

Father Pat

Owner: Marquette Transportation Company Gulf-Inland, LLC, Jefferson, LA. More information available from US FCC via Universal Licensing System and Coast Guard Vessel Documentation Center.

Last reported at 2015-Mar-29 19:32 UTC. Time now 2015-Mar-31 20:52 UTC.
Position N 29°35' W 090°58'.

Type: Towing. MMSI: 367519320.

Date/timePositionNaut miles runAvg speedWind from/ knotsBaromVisibWave heightAir tempDewpointWater temp
2015-Mar-29 19:32N 29°35' W 090°58'4 4.0
2015-Mar-29 18:33N 29°33' W 090°54'4 3.9
2015-Mar-29 17:33N 29°32' W 090°50'3 3.5
2015-Mar-29 16:33N 29°32' W 090°46'3 3.1
2015-Mar-29 15:33N 29°34' W 090°43'3 3.0
2015-Mar-29 14:33N 29°37' W 090°42'4 3.7
2015-Mar-29 13:34N 29°35' W 090°38'4 3.6
2015-Mar-29 12:33N 29°34' W 090°34'29 2.6
2015-Mar-29 01:20N 29°47' W 090°04'3 3.1
2015-Mar-29 00:27N 29°50' W 090°03'4 3.6
2015-Mar-28 23:16N 29°53' W 090°00'3 1.5
2015-Mar-28 21:32N 29°55' W 089°58'1 0.1
2015-Mar-28 02:20N 29°55' W 089°57'0 0.0
2015-Mar-28 01:26N 29°55' W 089°57'0 0.0
2015-Mar-28 00:30N 29°55' W 089°57'0 0.0
2015-Mar-27 23:28N 29°55' W 089°57'0 0.0
2015-Mar-27 22:28N 29°55' W 089°57'0 0.0
2015-Mar-27 21:32N 29°55' W 089°57'5 5.5
2015-Mar-27 20:33N 29°57' W 090°03'5 4.7
2015-Mar-27 19:28N 29°57' W 090°08'22 0.6
2015-Mar-26 04:28N 30°03' W 090°33'20 2.5
2015-Mar-25 20:16N 29°57' W 090°10'2 2.4
2015-Mar-25 19:33N 29°56' W 090°08'3 3.2
2015-Mar-25 18:30N 29°55' W 090°05'3 3.1
2015-Mar-25 17:30N 29°57' W 090°03'1 1.0
2015-Mar-25 16:33N 29°58' W 090°02'0 0.3
2015-Mar-25 15:31N 29°58' W 090°02'1 1.5
2015-Mar-25 14:33N 29°60' W 090°01'0 0.1
2015-Mar-25 13:33N 29°60' W 090°01'0 0.0
2015-Mar-25 12:16N 29°60' W 090°01'0 0.0
2015-Mar-24 18:11N 29°60' W 090°01'0 0.0
2015-Mar-24 17:05N 29°60' W 090°01'1 0.1
2015-Mar-24 10:18N 29°60' W 090°00'1 1.0
2015-Mar-24 09:33N 29°60' W 090°01'2 1.9
2015-Mar-24 08:32N 29°58' W 090°02'2 2.1
2015-Mar-24 07:32N 29°56' W 090°03'6 5.7
2015-Mar-24 06:33N 29°57' W 090°10'1 0.1
2015-Mar-23 23:06N 29°56' W 090°11'2 3.3
2015-Mar-23 22:28N 29°56' W 090°08'4 4.1
2015-Mar-23 21:28N 29°56' W 090°04'6 2.3
2015-Mar-23 19:05N 29°55' W 089°57'5 0.3
2015-Mar-23 01:06N 29°60' W 090°01'0 0.2
2015-Mar-22 22:06N 29°59' W 090°01'2 2.3
2015-Mar-22 21:22N 29°60' W 089°59'2 1.7
2015-Mar-22 20:27N 30°00' W 089°58'1 0.8
2015-Mar-22 19:26N 30°00' W 089°57'5 5.2
2015-Mar-22 18:31N 29°58' W 090°02'0 0.2
2015-Mar-22 17:06N 29°58' W 090°02'1 1.2
2015-Mar-22 16:28N 29°58' W 090°03'2 2.3
2015-Mar-22 15:26N 29°56' W 090°00'3 0.1
2015-Mar-21 15:17N 29°53' W 089°60'0 0.2
2015-Mar-21 14:29N 29°53' W 089°60'0 0.0
2015-Mar-21 13:33N 29°53' W 089°60'0 0.0
2015-Mar-21 12:31N 29°53' W 089°60'0 0.0
2015-Mar-21 11:19N 29°53' W 089°60'0 0.0
2015-Mar-21 10:31N 29°53' W 089°60'0 0.0
2015-Mar-21 09:32N 29°53' W 089°60'0 0.0
2015-Mar-21 08:25N 29°53' W 089°60'0 0.0
2015-Mar-21 07:22N 29°53' W 089°60'4 1.9
2015-Mar-21 05:15N 29°50' W 090°03'0 0.0
2015-Mar-21 04:32N 29°50' W 090°03'0 0.0
2015-Mar-21 03:30N 29°50' W 090°03'  

Dump ship's entire track history